createdAt,value
2022-09-30T00:01:21.334Z,3.80
2022-09-30T00:03:49.385Z,3.40
2022-09-30T00:06:16.202Z,3.93
2022-09-30T00:08:43.460Z,4.00
2022-09-30T00:11:22.907Z,4.33
2022-09-30T00:13:51.254Z,4.10
2022-09-30T00:16:21.160Z,3.70
2022-09-30T00:18:49.678Z,5.50
2022-09-30T00:21:17.390Z,4.60
2022-09-30T00:23:45.028Z,3.47
2022-09-30T00:26:18.300Z,5.00
2022-09-30T00:28:49.010Z,3.63
2022-09-30T00:31:18.179Z,3.60
2022-09-30T00:34:05.906Z,3.20
2022-09-30T00:36:36.783Z,3.47
2022-09-30T00:39:04.952Z,3.30
2022-09-30T00:41:32.703Z,3.33
2022-09-30T00:43:59.621Z,3.83
2022-09-30T00:46:44.405Z,4.27
2022-09-30T00:49:25.092Z,4.00
2022-09-30T00:51:55.851Z,3.47
2022-09-30T00:54:31.120Z,8.60
2022-09-30T00:57:03.113Z,7.63
2022-09-30T00:59:37.032Z,6.63
2022-09-30T01:02:04.580Z,5.43
2022-09-30T01:04:34.945Z,5.13
2022-09-30T01:07:07.072Z,4.40
2022-09-30T01:09:36.245Z,3.77
2022-09-30T01:12:16.587Z,3.30
2022-09-30T01:14:47.418Z,3.13
2022-09-30T01:17:40.231Z,4.20
2022-09-30T01:20:19.059Z,3.80
2022-09-30T01:22:57.851Z,4.53
2022-09-30T01:25:33.693Z,4.77
2022-09-30T01:28:09.483Z,3.60
2022-09-30T01:30:42.236Z,4.60
2022-09-30T01:33:27.735Z,3.80
2022-09-30T01:36:20.729Z,3.90
2022-09-30T01:39:18.469Z,3.40
2022-09-30T01:42:00.959Z,3.93
2022-09-30T01:44:35.173Z,3.67
2022-09-30T01:47:15.142Z,4.57
2022-09-30T01:49:51.728Z,7.40
2022-09-30T01:52:59.031Z,3.90
2022-09-30T01:55:33.540Z,3.77
2022-09-30T01:58:09.152Z,4.43
2022-09-30T02:00:40.845Z,4.43
2022-09-30T02:03:45.552Z,5.20
2022-09-30T02:06:18.820Z,4.53
2022-09-30T02:08:49.832Z,4.97
2022-09-30T02:11:28.726Z,3.97
2022-09-30T02:14:14.215Z,4.33
2022-09-30T02:16:47.185Z,3.77
2022-09-30T02:19:20.518Z,3.63
2022-09-30T02:21:56.777Z,3.50
2022-09-30T02:24:27.227Z,5.20
2022-09-30T02:26:58.134Z,4.40
2022-09-30T02:29:30.830Z,4.23
2022-09-30T02:32:03.813Z,3.83
2022-09-30T02:34:40.201Z,3.50
2022-09-30T02:37:07.291Z,3.43
2022-09-30T02:39:43.620Z,4.33
2022-09-30T02:42:20.241Z,4.53
2022-09-30T02:44:50.990Z,3.53
2022-09-30T02:47:32.744Z,3.60
2022-09-30T02:50:11.477Z,3.30
2022-09-30T02:52:54.769Z,3.77
2022-09-30T02:55:30.789Z,4.10
2022-09-30T02:58:00.675Z,3.80
2022-09-30T03:00:27.945Z,3.37
2022-09-30T03:03:00.496Z,5.30
2022-09-30T03:05:28.922Z,3.97
2022-09-30T03:07:56.835Z,3.67
2022-09-30T03:10:24.302Z,4.03
2022-09-30T03:13:10.452Z,5.17
2022-09-30T03:16:03.056Z,3.93
2022-09-30T03:18:56.220Z,3.30
2022-09-30T03:21:29.257Z,3.63
2022-09-30T03:24:07.867Z,2.90
2022-09-30T03:26:46.768Z,3.17
2022-09-30T03:29:36.735Z,4.33
2022-09-30T03:32:20.252Z,4.33
2022-09-30T03:35:01.694Z,4.47
2022-09-30T03:37:39.040Z,3.73
2022-09-30T03:40:17.625Z,3.60
2022-09-30T03:42:53.044Z,3.43
2022-09-30T03:45:50.694Z,3.80
2022-09-30T03:48:20.849Z,4.87
2022-09-30T03:50:48.287Z,5.30
2022-09-30T03:53:16.131Z,4.07
2022-09-30T03:55:51.699Z,3.60
2022-09-30T03:58:22.121Z,3.77
2022-09-30T04:00:53.815Z,4.70
2022-09-30T04:03:22.206Z,4.60
2022-09-30T04:05:49.703Z,4.37
2022-09-30T04:08:16.746Z,4.27
2022-09-30T04:10:44.043Z,4.00
2022-09-30T04:13:11.912Z,4.07
2022-09-30T04:15:39.232Z,4.67
2022-09-30T04:18:06.447Z,3.50
2022-09-30T04:20:33.661Z,4.17
2022-09-30T04:23:01.651Z,5.13
2022-09-30T04:25:29.302Z,4.80
2022-09-30T04:27:56.760Z,5.07
2022-09-30T04:30:25.779Z,7.30
2022-09-30T04:32:54.971Z,7.20
2022-09-30T04:35:21.979Z,6.83
2022-09-30T04:37:48.915Z,10.10
2022-09-30T04:40:17.059Z,5.57
2022-09-30T04:42:44.432Z,5.47
2022-09-30T04:45:12.691Z,7.93
2022-09-30T04:47:44.219Z,5.90
2022-09-30T04:50:11.185Z,6.10
2022-09-30T04:52:38.383Z,9.80
2022-09-30T04:55:05.766Z,6.30
2022-09-30T04:57:32.889Z,6.17
2022-09-30T04:59:59.848Z,6.03
2022-09-30T05:02:26.861Z,6.77
2022-09-30T05:04:55.228Z,6.07
2022-09-30T05:07:22.278Z,6.00
2022-09-30T05:09:49.100Z,8.10
2022-09-30T05:12:16.106Z,6.90
2022-09-30T05:14:42.902Z,6.73
2022-09-30T05:17:10.192Z,6.60
2022-09-30T05:19:37.045Z,8.23
2022-09-30T05:22:03.931Z,8.60
2022-09-30T05:24:30.986Z,7.50
2022-09-30T05:26:58.072Z,8.70
2022-09-30T05:29:27.709Z,7.13
2022-09-30T05:31:54.659Z,6.40
2022-09-30T05:34:21.649Z,6.03
2022-09-30T05:36:48.474Z,7.10
2022-09-30T05:39:15.405Z,6.50
2022-09-30T05:41:42.279Z,6.13
2022-09-30T05:44:09.469Z,7.10
2022-09-30T05:46:36.345Z,7.17
2022-09-30T05:49:03.244Z,7.87
2022-09-30T05:51:30.077Z,5.50
2022-09-30T05:53:56.913Z,7.20
2022-09-30T05:56:23.741Z,6.40
2022-09-30T05:58:51.043Z,7.10
2022-09-30T06:01:18.015Z,7.50
2022-09-30T06:03:46.644Z,5.97
2022-09-30T06:06:14.837Z,7.50
2022-09-30T06:08:43.485Z,8.33
2022-09-30T06:11:23.427Z,8.60
2022-09-30T06:13:50.578Z,8.20
2022-09-30T06:16:18.401Z,7.67
2022-09-30T06:18:45.757Z,11.40
2022-09-30T06:21:15.427Z,9.43
2022-09-30T06:23:42.270Z,7.50
2022-09-30T06:26:14.647Z,8.90
2022-09-30T06:28:42.367Z,8.93
2022-09-30T06:31:09.458Z,8.20
2022-09-30T06:33:36.261Z,9.10
2022-09-30T06:36:04.759Z,8.30
2022-09-30T06:38:32.626Z,9.23
2022-09-30T06:41:02.930Z,9.07
2022-09-30T06:43:29.834Z,8.13
2022-09-30T06:46:10.818Z,11.67
2022-09-30T06:48:40.989Z,9.40
2022-09-30T06:51:10.483Z,7.87
2022-09-30T06:53:39.179Z,9.03
2022-09-30T06:56:06.635Z,8.83
2022-09-30T06:58:33.472Z,8.87
2022-09-30T07:01:03.640Z,9.77
2022-09-30T07:03:35.772Z,9.20
2022-09-30T07:06:04.949Z,8.50
2022-09-30T07:08:34.352Z,8.97
2022-09-30T07:11:04.487Z,9.87
2022-09-30T07:13:33.034Z,9.17
2022-09-30T07:15:59.922Z,11.03
2022-09-30T07:18:28.937Z,8.57
2022-09-30T07:20:56.740Z,9.30
2022-09-30T07:23:27.757Z,7.70
2022-09-30T07:26:00.291Z,7.57
2022-09-30T07:28:33.060Z,7.97
2022-09-30T07:31:36.031Z,7.40
2022-09-30T07:33:59.205Z,7.47
2022-09-30T07:36:33.903Z,8.00
2022-09-30T07:39:06.567Z,7.47
2022-09-30T07:41:35.951Z,8.00
2022-09-30T07:44:06.245Z,7.93
2022-09-30T07:46:36.248Z,7.70
2022-09-30T07:49:08.742Z,7.20
2022-09-30T07:51:41.511Z,7.13
2022-09-30T07:54:13.141Z,7.83
2022-09-30T07:57:08.251Z,7.17
2022-09-30T07:59:30.718Z,7.27
2022-09-30T08:01:57.902Z,7.50
2022-09-30T08:04:27.215Z,7.53
2022-09-30T08:06:57.309Z,8.00
2022-09-30T08:09:26.555Z,8.20
2022-09-30T08:11:54.183Z,9.40
2022-09-30T08:14:26.390Z,10.30
2022-09-30T08:16:54.095Z,9.40
2022-09-30T08:19:22.967Z,7.63
2022-09-30T08:21:50.747Z,7.73
2022-09-30T08:24:17.820Z,6.33
2022-09-30T08:26:44.860Z,6.90
2022-09-30T08:29:20.005Z,6.20
2022-09-30T08:31:48.087Z,6.17
2022-09-30T08:34:15.300Z,6.77
2022-09-30T08:36:42.292Z,5.17
2022-09-30T08:39:10.997Z,5.20
2022-09-30T08:42:13.757Z,4.90
2022-09-30T08:44:50.315Z,5.77
2022-09-30T08:47:51.301Z,5.60
2022-09-30T08:50:45.100Z,6.57
2022-09-30T08:53:18.152Z,6.03
2022-09-30T08:55:46.234Z,5.50
2022-09-30T08:58:28.454Z,5.87
2022-09-30T09:01:01.325Z,5.23
2022-09-30T09:03:31.143Z,5.77
2022-09-30T09:06:07.264Z,6.30
2022-09-30T09:08:42.915Z,6.00
2022-09-30T09:11:47.978Z,6.50
2022-09-30T09:14:45.171Z,6.00
2022-09-30T09:17:25.363Z,5.70
2022-09-30T09:20:12.997Z,5.60
2022-09-30T09:22:40.117Z,5.30
2022-09-30T09:25:15.036Z,5.10
2022-09-30T09:27:54.001Z,5.10
2022-09-30T09:30:26.409Z,5.10
2022-09-30T09:32:57.169Z,5.20
2022-09-30T09:35:49.688Z,4.60
2022-09-30T09:38:26.082Z,3.77
2022-09-30T09:41:16.202Z,3.70
2022-09-30T09:44:17.969Z,3.10
2022-09-30T09:46:49.118Z,3.50
2022-09-30T09:49:22.126Z,3.40
2022-09-30T09:52:06.971Z,2.83
2022-09-30T09:54:45.454Z,2.63
2022-09-30T09:57:15.703Z,2.90
2022-09-30T10:02:31.877Z,2.53
2022-09-30T10:05:03.706Z,2.73
2022-09-30T10:07:33.154Z,2.50
2022-09-30T10:10:23.681Z,2.30
2022-09-30T10:12:51.074Z,2.90
2022-09-30T10:15:23.597Z,2.60
2022-09-30T10:17:58.988Z,2.20
2022-09-30T10:20:37.083Z,2.03
2022-09-30T10:23:22.515Z,1.90
2022-09-30T10:26:15.346Z,1.80
2022-09-30T10:28:56.942Z,7.70
2022-09-30T10:31:23.782Z,4.97
2022-09-30T10:34:14.422Z,2.90
2022-09-30T10:36:45.862Z,2.77
2022-09-30T10:39:28.554Z,3.13
2022-09-30T10:42:15.101Z,2.80
2022-09-30T10:44:49.549Z,4.00
2022-09-30T10:47:22.300Z,3.43
2022-09-30T10:50:07.081Z,2.20
2022-09-30T10:52:38.163Z,2.60
2022-09-30T10:55:32.542Z,2.10
2022-09-30T10:58:21.271Z,1.87
2022-09-30T11:00:53.509Z,2.07
2022-09-30T11:03:35.094Z,2.13
2022-09-30T11:06:02.026Z,2.10
2022-09-30T11:08:57.068Z,2.43
2022-09-30T11:11:44.157Z,2.20
2022-09-30T11:14:33.083Z,2.10
2022-09-30T11:17:08.969Z,2.83
2022-09-30T11:19:51.248Z,2.20
2022-09-30T11:22:33.871Z,2.30
2022-09-30T11:25:07.446Z,2.03
2022-09-30T11:27:49.307Z,2.10
2022-09-30T11:30:21.205Z,2.10
2022-09-30T11:33:22.721Z,2.00
2022-09-30T11:36:07.160Z,2.00
2022-09-30T11:38:55.295Z,1.90
2022-09-30T11:41:48.542Z,2.00
2022-09-30T11:44:18.358Z,1.83
2022-09-30T11:46:50.982Z,2.13
2022-09-30T11:49:52.173Z,1.87
2022-09-30T11:52:37.043Z,2.00
2022-09-30T11:55:23.578Z,2.30
2022-09-30T11:58:08.397Z,2.10
2022-09-30T12:00:48.503Z,2.23
2022-09-30T12:03:35.859Z,2.10
2022-09-30T12:06:10.326Z,2.57
2022-09-30T12:08:50.461Z,2.33
2022-09-30T12:11:26.354Z,1.80
2022-09-30T12:13:59.789Z,1.90
2022-09-30T12:16:31.942Z,2.00
2022-09-30T12:19:14.415Z,2.10
2022-09-30T12:21:50.501Z,2.40
2022-09-30T12:24:37.687Z,2.00
2022-09-30T12:27:12.808Z,2.10
2022-09-30T12:30:03.292Z,2.07
2022-09-30T12:32:52.166Z,2.30
2022-09-30T12:36:13.601Z,2.20
2022-09-30T12:39:14.877Z,2.10
2022-09-30T12:42:07.157Z,2.23
2022-09-30T12:45:11.800Z,2.30
2022-09-30T12:47:51.655Z,2.30
2022-09-30T12:50:26.816Z,2.40
2022-09-30T12:52:54.985Z,2.33
2022-09-30T12:55:31.083Z,2.60
2022-09-30T12:58:03.134Z,2.40
2022-09-30T13:00:34.784Z,2.83
2022-09-30T13:03:09.017Z,2.20
2022-09-30T13:05:43.454Z,2.20
2022-09-30T13:08:16.401Z,2.30
2022-09-30T13:10:53.088Z,2.63
2022-09-30T13:13:26.243Z,2.50
2022-09-30T13:15:56.261Z,2.30
2022-09-30T13:18:27.037Z,2.60
2022-09-30T13:21:19.977Z,2.70
2022-09-30T13:23:50.839Z,2.70
2022-09-30T13:26:24.247Z,2.90
2022-09-30T13:28:52.989Z,2.80
2022-09-30T13:31:22.633Z,2.60
2022-09-30T13:34:01.737Z,2.60
2022-09-30T13:36:58.172Z,2.60
2022-09-30T13:39:43.729Z,2.53
2022-09-30T13:42:16.618Z,2.80
2022-09-30T13:45:05.115Z,3.00
2022-09-30T13:47:48.489Z,2.60
2022-09-30T13:50:24.530Z,3.43
2022-09-30T13:52:56.286Z,2.87
2022-09-30T13:55:28.478Z,2.90
2022-09-30T13:58:18.297Z,2.93
2022-09-30T14:01:12.891Z,3.17
2022-09-30T14:03:45.955Z,3.53
2022-09-30T14:06:54.777Z,3.53
2022-09-30T14:09:55.017Z,3.50
2022-09-30T14:12:34.027Z,3.10
2022-09-30T14:15:07.406Z,2.90
2022-09-30T14:17:53.052Z,3.20
2022-09-30T14:20:26.256Z,3.10
2022-09-30T14:22:53.380Z,2.97
2022-09-30T14:25:21.589Z,2.80
2022-09-30T14:28:09.936Z,2.73
2022-09-30T14:30:42.099Z,2.70
2022-09-30T14:33:24.324Z,2.80
2022-09-30T14:35:54.531Z,2.87
2022-09-30T14:38:28.323Z,2.83
2022-09-30T14:40:58.572Z,2.77
2022-09-30T14:43:39.038Z,2.80
2022-09-30T14:46:32.695Z,2.60
2022-09-30T14:49:06.198Z,2.60
2022-09-30T14:51:43.503Z,2.60
2022-09-30T14:54:21.054Z,4.20
2022-09-30T14:56:54.726Z,3.97
2022-09-30T14:59:29.923Z,4.07
2022-09-30T15:02:03.624Z,4.30
2022-09-30T15:04:34.380Z,4.70
2022-09-30T15:07:04.121Z,4.40
2022-09-30T15:09:36.158Z,4.70
2022-09-30T15:12:19.305Z,5.20
2022-09-30T15:14:50.162Z,4.97
2022-09-30T15:17:23.570Z,5.03
2022-09-30T15:19:50.918Z,5.23
2022-09-30T15:22:19.043Z,5.60
2022-09-30T15:24:48.709Z,5.40
2022-09-30T15:27:26.245Z,5.10
2022-09-30T15:29:58.407Z,4.67
2022-09-30T15:32:28.344Z,4.73
2022-09-30T15:34:58.469Z,5.00
2022-09-30T15:37:33.578Z,5.37
2022-09-30T15:40:21.440Z,5.43
2022-09-30T15:42:51.226Z,5.50
2022-09-30T15:45:21.314Z,5.00
2022-09-30T15:48:17.416Z,5.90
2022-09-30T15:50:46.482Z,5.90
2022-09-30T15:53:24.137Z,5.40
2022-09-30T15:55:59.468Z,5.43
2022-09-30T15:58:26.672Z,5.17
2022-09-30T16:01:09.255Z,5.10
2022-09-30T16:03:36.601Z,5.40
2022-09-30T16:06:08.966Z,5.20
2022-09-30T16:08:50.697Z,5.00
2022-09-30T16:11:29.080Z,4.80
2022-09-30T16:13:57.947Z,4.80
2022-09-30T16:16:32.120Z,5.00
2022-09-30T16:19:01.488Z,4.73
2022-09-30T16:21:44.283Z,5.30
2022-09-30T16:24:34.064Z,4.50
2022-09-30T16:27:21.926Z,5.00
2022-09-30T16:29:48.857Z,4.50
2022-09-30T16:32:15.802Z,4.53
2022-09-30T16:34:42.713Z,4.50
2022-09-30T16:37:14.846Z,4.50
2022-09-30T16:39:41.823Z,4.30
2022-09-30T16:42:16.280Z,4.30
2022-09-30T16:44:44.549Z,4.87
2022-09-30T16:47:17.017Z,4.60
2022-09-30T16:49:46.446Z,5.33
2022-09-30T16:52:13.908Z,6.20
2022-09-30T16:54:42.684Z,6.50
2022-09-30T16:57:12.414Z,4.93
2022-09-30T16:59:39.363Z,4.60
2022-09-30T17:02:10.867Z,6.10
2022-09-30T17:04:38.700Z,4.60
2022-09-30T17:07:05.551Z,4.83
2022-09-30T17:09:32.525Z,4.23
2022-09-30T17:12:01.076Z,4.40
2022-09-30T17:14:28.846Z,4.00
2022-09-30T17:16:56.311Z,5.53
2022-09-30T17:19:23.353Z,4.67
2022-09-30T17:21:50.199Z,5.03
2022-09-30T17:24:17.045Z,4.40
2022-09-30T17:26:44.413Z,4.63
2022-09-30T17:31:58.356Z,5.13
2022-09-30T17:34:27.952Z,4.30
2022-09-30T17:36:56.223Z,4.40
2022-09-30T17:39:25.279Z,4.20
2022-09-30T17:42:10.697Z,4.17
2022-09-30T17:44:39.070Z,4.03
2022-09-30T17:47:06.050Z,4.33
2022-09-30T17:49:34.796Z,4.03
2022-09-30T17:52:02.418Z,4.73
2022-09-30T17:54:29.683Z,4.73
2022-09-30T17:56:57.282Z,4.53
2022-09-30T17:59:26.787Z,4.83
2022-09-30T18:01:56.417Z,5.03
2022-09-30T18:04:26.046Z,5.07
2022-09-30T18:06:54.291Z,4.40
2022-09-30T18:09:22.079Z,3.67
2022-09-30T18:11:49.358Z,3.57
2022-09-30T18:14:16.374Z,3.70
2022-09-30T18:16:43.237Z,3.80
2022-09-30T18:19:10.185Z,3.20
2022-09-30T18:21:37.681Z,4.10
2022-09-30T18:24:06.393Z,3.87
2022-09-30T18:26:35.978Z,3.70
2022-09-30T18:29:04.283Z,3.90
2022-09-30T18:31:38.631Z,3.80
2022-09-30T18:34:06.917Z,4.00
2022-09-30T18:36:33.789Z,2.80
2022-09-30T18:39:02.105Z,3.00
2022-09-30T18:41:30.491Z,3.27
2022-09-30T18:44:02.571Z,2.87
2022-09-30T18:46:31.048Z,3.13
2022-09-30T18:48:58.126Z,2.90
2022-09-30T18:51:25.167Z,3.10
2022-09-30T18:53:57.750Z,3.30
2022-09-30T18:56:31.916Z,3.60
2022-09-30T18:59:01.011Z,3.60
2022-09-30T19:01:27.941Z,3.40
2022-09-30T19:03:54.945Z,2.80
2022-09-30T19:06:22.031Z,2.80
2022-09-30T19:08:49.023Z,3.17
2022-09-30T19:11:17.556Z,2.93
2022-09-30T19:13:47.914Z,3.83
2022-09-30T19:16:18.731Z,3.30
2022-09-30T19:18:46.730Z,2.83
2022-09-30T19:21:17.488Z,2.80
2022-09-30T19:23:44.265Z,2.33
2022-09-30T19:26:12.822Z,2.60
2022-09-30T19:28:39.710Z,2.40
2022-09-30T19:31:15.357Z,3.00
2022-09-30T19:33:54.872Z,2.80
2022-09-30T19:36:24.698Z,2.43
2022-09-30T19:38:58.622Z,2.93
2022-09-30T19:41:31.935Z,6.13
2022-09-30T19:44:01.973Z,4.60
2022-09-30T19:46:29.584Z,4.70
2022-09-30T19:48:56.698Z,5.70
2022-09-30T19:51:23.833Z,5.63
2022-09-30T19:54:04.159Z,6.27
2022-09-30T19:56:34.543Z,5.90
2022-09-30T19:59:01.597Z,4.60
2022-09-30T20:01:29.646Z,3.70
2022-09-30T20:03:59.109Z,3.10
2022-09-30T20:06:28.022Z,4.00
2022-09-30T20:09:00.319Z,3.43
2022-09-30T20:11:29.852Z,4.03
2022-09-30T20:14:16.020Z,4.00
2022-09-30T20:16:48.315Z,4.03
2022-09-30T20:19:16.183Z,3.30
2022-09-30T20:21:43.645Z,3.20
2022-09-30T20:24:12.492Z,3.23
2022-09-30T20:26:40.197Z,3.60
2022-09-30T20:29:08.711Z,3.60
2022-09-30T20:31:43.888Z,3.87
2022-09-30T20:34:13.433Z,3.73
2022-09-30T20:36:40.799Z,3.47
2022-09-30T20:39:08.261Z,2.90
2022-09-30T20:41:38.236Z,2.80
2022-09-30T20:44:07.027Z,3.07
2022-09-30T20:46:34.637Z,2.77
2022-09-30T20:49:02.084Z,2.90
2022-09-30T20:51:30.815Z,3.20
2022-09-30T20:53:59.336Z,3.17
2022-09-30T20:56:39.277Z,2.87
2022-09-30T20:59:16.068Z,3.17
2022-09-30T21:01:42.911Z,3.27
2022-09-30T21:04:09.897Z,2.80
2022-09-30T21:06:36.697Z,3.50
2022-09-30T21:09:03.838Z,3.10
2022-09-30T21:11:30.888Z,3.20
2022-09-30T21:13:58.206Z,3.10
2022-09-30T21:16:25.718Z,2.90
2022-09-30T21:18:53.441Z,3.20
2022-09-30T21:21:21.831Z,3.40
2022-09-30T21:23:48.914Z,3.27
2022-09-30T21:26:17.365Z,4.20
2022-09-30T21:28:49.365Z,4.37
2022-09-30T21:31:20.290Z,3.97
2022-09-30T21:33:56.548Z,3.67
2022-09-30T21:36:24.437Z,4.10
2022-09-30T21:38:52.416Z,3.90
2022-09-30T21:41:19.998Z,3.73
2022-09-30T21:43:47.450Z,3.70
2022-09-30T21:46:15.896Z,3.83
2022-09-30T21:48:43.065Z,3.30
2022-09-30T21:51:10.458Z,3.67
2022-09-30T21:53:38.884Z,3.43
2022-09-30T21:56:07.027Z,4.10
2022-09-30T21:58:34.291Z,5.00
2022-09-30T22:01:03.863Z,5.10
2022-09-30T22:03:37.228Z,5.13
2022-09-30T22:06:07.295Z,5.23
2022-09-30T22:08:36.328Z,4.93
2022-09-30T22:11:08.111Z,5.10
2022-09-30T22:13:34.916Z,5.33
2022-09-30T22:16:04.793Z,5.37
2022-09-30T22:18:32.268Z,5.23
2022-09-30T22:21:08.600Z,5.20
2022-09-30T22:23:35.458Z,4.83
2022-09-30T22:26:19.681Z,4.50
2022-09-30T22:28:48.503Z,4.90
2022-09-30T22:31:20.359Z,4.53
2022-09-30T22:34:14.950Z,4.13
2022-09-30T22:37:00.534Z,3.47
2022-09-30T22:39:27.477Z,4.10
2022-09-30T22:41:56.012Z,3.97
2022-09-30T22:44:25.651Z,3.70
2022-09-30T22:46:53.610Z,3.70
2022-09-30T22:49:21.117Z,4.20
2022-09-30T22:51:52.424Z,4.00
2022-09-30T22:54:19.365Z,3.87
2022-09-30T22:56:46.368Z,3.90
2022-09-30T22:59:13.206Z,4.93
2022-09-30T23:01:40.058Z,4.60
2022-09-30T23:04:08.026Z,3.50
2022-09-30T23:06:34.845Z,3.67
2022-09-30T23:09:06.875Z,3.97
2022-09-30T23:11:35.604Z,3.80
2022-09-30T23:14:03.247Z,3.80
2022-09-30T23:16:30.189Z,3.70
2022-09-30T23:18:58.180Z,3.50
2022-09-30T23:21:25.589Z,3.87
2022-09-30T23:23:53.401Z,4.30
2022-09-30T23:26:26.497Z,4.20
2022-09-30T23:28:57.663Z,4.00
2022-09-30T23:31:24.768Z,4.20
2022-09-30T23:33:54.227Z,4.30
2022-09-30T23:36:26.482Z,3.83
2022-09-30T23:38:54.003Z,3.80
2022-09-30T23:41:21.408Z,3.70
2022-09-30T23:43:48.682Z,3.70
2022-09-30T23:46:17.016Z,3.80
2022-09-30T23:48:47.131Z,3.80
2022-09-30T23:51:14.913Z,3.87
2022-09-30T23:53:42.730Z,4.07
2022-09-30T23:56:15.479Z,4.03
2022-09-30T23:58:43.569Z,3.70
